createdAt,value
2023-04-18T00:01:18.761Z,101895.09
2023-04-18T00:03:45.783Z,101897.72
2023-04-18T00:06:13.716Z,101901.88
2023-04-18T00:08:40.356Z,101898.09
2023-04-18T00:11:07.009Z,101897.44
2023-04-18T00:13:33.569Z,101889.72
2023-04-18T00:16:00.372Z,101890.69
2023-04-18T00:18:27.695Z,101899.72
2023-04-18T00:20:54.719Z,101904.38
2023-04-18T00:23:22.271Z,101896.63
2023-04-18T00:25:48.864Z,101903.69
2023-04-18T00:28:15.621Z,101897.97
2023-04-18T00:30:42.173Z,101902.56
2023-04-18T00:33:08.932Z,101904.84
2023-04-18T00:35:35.412Z,101901.91
2023-04-18T00:38:01.834Z,101896.97
2023-04-18T00:40:28.252Z,101901.22
2023-04-18T00:42:54.662Z,101902.22
2023-04-18T00:45:21.110Z,101895.66
2023-04-18T00:47:47.498Z,101898.28
2023-04-18T00:50:15.245Z,101898.91
2023-04-18T00:52:42.322Z,101897.28
2023-04-18T00:55:09.309Z,101897.63
2023-04-18T00:57:36.646Z,101894.31
2023-04-18T01:00:10.471Z,101904.19
2023-04-18T01:02:37.777Z,101893.66
2023-04-18T01:05:04.696Z,101899.91
2023-04-18T01:07:33.320Z,101900.22
2023-04-18T01:10:02.004Z,101895.31
2023-04-18T01:12:28.610Z,101891.19
2023-04-18T01:14:55.259Z,101895.13
2023-04-18T01:17:23.534Z,101892.97
2023-04-18T01:19:50.945Z,101895.25
2023-04-18T01:22:17.645Z,101894.75
2023-04-18T01:24:44.024Z,101886.69
2023-04-18T01:27:13.864Z,101899.00
2023-04-18T01:29:40.732Z,101894.25
2023-04-18T01:32:07.497Z,101890.66
2023-04-18T01:34:33.975Z,101894.59
2023-04-18T01:37:00.425Z,101898.19
2023-04-18T01:39:26.851Z,101888.19
2023-04-18T01:41:53.421Z,101885.41
2023-04-18T01:44:19.964Z,101880.94
2023-04-18T01:46:46.374Z,101883.72
2023-04-18T01:49:12.926Z,101892.44
2023-04-18T01:51:39.425Z,101878.50
2023-04-18T01:54:06.021Z,101889.66
2023-04-18T01:56:32.466Z,101886.03
2023-04-18T01:58:59.109Z,101889.97
2023-04-18T02:01:25.545Z,101881.91
2023-04-18T02:03:52.064Z,101885.84
2023-04-18T02:06:18.529Z,101874.22
2023-04-18T02:08:45.101Z,101868.47
2023-04-18T02:11:11.566Z,101879.13
2023-04-18T02:13:37.942Z,101871.06
2023-04-18T02:16:04.571Z,101875.00
2023-04-18T02:18:34.584Z,101877.31
2023-04-18T02:21:00.968Z,101881.22
2023-04-18T02:23:27.570Z,101883.19
2023-04-18T02:25:55.656Z,101885.50
2023-04-18T02:28:22.016Z,101880.25
2023-04-18T02:30:48.570Z,101875.78
2023-04-18T02:33:14.960Z,101877.28
2023-04-18T02:35:41.624Z,101882.34
2023-04-18T02:38:08.356Z,101877.75
2023-04-18T02:40:34.708Z,101884.16
2023-04-18T02:43:02.506Z,101883.66
2023-04-18T02:45:29.057Z,101881.19
2023-04-18T02:47:56.735Z,101877.59
2023-04-18T02:50:24.710Z,101882.66
2023-04-18T02:52:52.435Z,101875.44
2023-04-18T02:55:19.180Z,101878.22
2023-04-18T02:57:45.830Z,101877.41
2023-04-18T03:00:13.755Z,101874.28
2023-04-18T03:02:40.215Z,101880.66
2023-04-18T03:05:07.401Z,101883.78
2023-04-18T03:07:33.864Z,101882.16
2023-04-18T03:10:00.546Z,101879.38
2023-04-18T03:12:26.979Z,101876.91
2023-04-18T03:14:53.566Z,101883.31
2023-04-18T03:17:21.323Z,101879.69
2023-04-18T03:19:48.055Z,101887.72
2023-04-18T03:22:15.509Z,101888.56
2023-04-18T03:24:41.884Z,101887.41
2023-04-18T03:27:08.447Z,101898.25
2023-04-18T03:29:34.970Z,101894.31
2023-04-18T03:32:01.361Z,101896.28
2023-04-18T03:34:28.625Z,101892.00
2023-04-18T03:36:55.028Z,101900.38
2023-04-18T03:39:21.431Z,101893.66
2023-04-18T03:41:47.784Z,101900.91
2023-04-18T03:44:14.720Z,101902.84
2023-04-18T03:46:41.492Z,101903.34
2023-04-18T03:49:08.034Z,101903.84
2023-04-18T03:51:43.168Z,101898.25
2023-04-18T03:54:09.736Z,101898.44
2023-04-18T03:56:36.212Z,101907.28
2023-04-18T03:59:06.632Z,101900.59
2023-04-18T04:01:33.240Z,101909.78
2023-04-18T04:04:01.986Z,101907.81
2023-04-18T04:06:28.555Z,101905.84
2023-04-18T04:08:54.989Z,101906.31
2023-04-18T04:11:21.884Z,101912.44
2023-04-18T04:13:48.450Z,101909.13
2023-04-18T04:16:15.224Z,101915.53
2023-04-18T04:18:41.870Z,101912.44
2023-04-18T04:21:08.187Z,101914.06
2023-04-18T04:23:34.522Z,101916.50
2023-04-18T04:26:04.553Z,101915.41
2023-04-18T04:28:31.772Z,101919.81
2023-04-18T04:30:58.146Z,101917.03
2023-04-18T04:33:28.254Z,101917.84
2023-04-18T04:35:56.429Z,101924.25
2023-04-18T04:38:25.641Z,101924.59
2023-04-18T04:40:53.085Z,101917.84
2023-04-18T04:43:20.405Z,101929.00
2023-04-18T04:45:51.793Z,101930.66
2023-04-18T04:48:19.966Z,101926.72
2023-04-18T04:50:54.932Z,101925.88
2023-04-18T04:53:22.163Z,101930.00
2023-04-18T04:55:48.977Z,101940.03
2023-04-18T04:58:15.635Z,101932.81
2023-04-18T05:00:42.292Z,101932.81
2023-04-18T05:03:09.615Z,101936.41
2023-04-18T05:05:37.659Z,101947.56
2023-04-18T05:08:04.927Z,101937.22
2023-04-18T05:10:32.464Z,101936.06
2023-04-18T05:13:00.182Z,101933.28
2023-04-18T05:15:26.561Z,101934.94
2023-04-18T05:17:52.994Z,101937.72
2023-04-18T05:20:19.447Z,101937.22
2023-04-18T05:22:45.813Z,101942.81
2023-04-18T05:25:12.786Z,101934.44
2023-04-18T05:27:39.495Z,101940.84
2023-04-18T05:30:06.879Z,101936.06
2023-04-18T05:32:33.360Z,101937.72
2023-04-18T05:34:59.963Z,101941.34
2023-04-18T05:37:26.712Z,101949.72
2023-04-18T05:39:53.056Z,101942.19
2023-04-18T05:42:19.416Z,101950.84
2023-04-18T05:44:45.789Z,101955.59
2023-04-18T05:47:12.192Z,101956.44
2023-04-18T05:49:38.563Z,101960.88
2023-04-18T05:52:05.002Z,101957.25
2023-04-18T05:54:31.429Z,101963.34
2023-04-18T05:56:58.380Z,101954.97
2023-04-18T05:59:26.627Z,101966.94
2023-04-18T06:01:53.503Z,101958.59
2023-04-18T06:04:20.926Z,101962.53
2023-04-18T06:06:47.737Z,101964.16
2023-04-18T06:09:14.110Z,101972.53
2023-04-18T06:11:41.042Z,101981.72
2023-04-18T06:14:07.976Z,101974.16
2023-04-18T06:16:36.306Z,101982.88
2023-04-18T06:19:03.234Z,101988.94
2023-04-18T06:21:29.593Z,101980.09
2023-04-18T06:23:55.992Z,101975.31
2023-04-18T06:26:22.404Z,101983.69
2023-04-18T06:28:48.789Z,101989.28
2023-04-18T06:31:15.208Z,101989.75
2023-04-18T06:33:41.714Z,101982.53
2023-04-18T06:36:08.841Z,101991.44
2023-04-18T06:38:35.303Z,101991.44
2023-04-18T06:41:01.674Z,101984.69
2023-04-18T06:43:28.274Z,101986.81
2023-04-18T06:45:56.374Z,101996.88
2023-04-18T06:48:22.719Z,101992.63
2023-04-18T06:50:49.066Z,101997.03
2023-04-18T06:53:15.429Z,101995.94
2023-04-18T06:55:41.889Z,102003.16
2023-04-18T06:58:09.979Z,102002.00
2023-04-18T07:00:36.371Z,101994.44
2023-04-18T07:03:11.460Z,102001.03
2023-04-18T07:05:38.835Z,101999.88
2023-04-18T07:08:05.478Z,102002.34
2023-04-18T07:10:32.073Z,101996.75
2023-04-18T07:12:58.448Z,101997.25
2023-04-18T07:15:24.772Z,101998.09
2023-04-18T07:17:51.421Z,102005.31
2023-04-18T07:20:17.786Z,102015.66
2023-04-18T07:22:44.213Z,102005.63
2023-04-18T07:25:10.792Z,101996.94
2023-04-18T07:27:37.496Z,102002.50
2023-04-18T07:30:04.784Z,102006.47
2023-04-18T07:32:31.409Z,102008.91
2023-04-18T07:34:58.037Z,102018.97
2023-04-18T07:37:24.687Z,102018.97
2023-04-18T07:39:51.579Z,102019.78
2023-04-18T07:42:18.224Z,102013.84
2023-04-18T07:44:44.799Z,102007.47
2023-04-18T07:47:11.180Z,102015.00
2023-04-18T07:49:37.997Z,102017.47
2023-04-18T07:52:04.933Z,102021.91
2023-04-18T07:54:31.559Z,102014.88
2023-04-18T07:56:59.115Z,102019.28
2023-04-18T07:59:25.569Z,102020.63
2023-04-18T08:01:51.953Z,102022.41
2023-04-18T08:04:18.490Z,102017.34
2023-04-18T08:06:44.907Z,102021.44
2023-04-18T08:09:12.064Z,102024.41
2023-04-18T08:11:39.050Z,102024.59
2023-04-18T08:14:06.734Z,102020.00
2023-04-18T08:16:33.172Z,102025.75
2023-04-18T08:18:59.533Z,102027.91
2023-04-18T08:21:26.837Z,102025.63
2023-04-18T08:23:53.271Z,102034.47
2023-04-18T08:26:19.793Z,102034.16
2023-04-18T08:28:46.653Z,102036.63
2023-04-18T08:31:14.913Z,102039.09
2023-04-18T08:33:41.810Z,102030.72
2023-04-18T08:36:08.463Z,102031.19
2023-04-18T08:38:35.091Z,102035.66
2023-04-18T08:41:01.479Z,102028.41
2023-04-18T08:43:30.299Z,102039.25
2023-04-18T08:46:00.859Z,102035.66
2023-04-18T08:48:30.538Z,102027.75
2023-04-18T08:50:58.529Z,102034.16
2023-04-18T08:53:28.089Z,102027.13
2023-04-18T08:55:57.912Z,102036.47
2023-04-18T08:58:27.178Z,102037.44
2023-04-18T09:00:54.817Z,102032.88
2023-04-18T09:03:37.712Z,102029.41
2023-04-18T09:06:15.973Z,102034.84
2023-04-18T09:08:43.798Z,102035.50
2023-04-18T09:11:30.174Z,102026.28
2023-04-18T09:13:58.848Z,102040.09
2023-04-18T09:16:27.460Z,102034.19
2023-04-18T09:19:21.786Z,102037.47
2023-04-18T09:21:58.192Z,102043.22
2023-04-18T09:24:26.970Z,102043.91
2023-04-18T09:26:56.017Z,102048.84
2023-04-18T09:29:41.113Z,102042.94
2023-04-18T09:32:07.614Z,102052.28
2023-04-18T09:34:34.188Z,102042.44
2023-04-18T09:37:11.326Z,102039.63
2023-04-18T09:39:43.661Z,102037.13
2023-04-18T09:42:11.044Z,102036.16
2023-04-18T09:44:38.881Z,102049.94
2023-04-18T09:47:07.716Z,102038.28
2023-04-18T09:49:34.912Z,102042.06
2023-04-18T09:52:07.109Z,102033.00
2023-04-18T09:54:38.606Z,102034.78
2023-04-18T09:57:11.005Z,102034.13
2023-04-18T09:59:51.134Z,102041.84
2023-04-18T10:02:22.776Z,102036.91
2023-04-18T10:04:51.140Z,102034.59
2023-04-18T10:07:18.147Z,102037.84
2023-04-18T10:09:46.427Z,102043.13
2023-04-18T10:12:13.569Z,102037.19
2023-04-18T10:14:43.122Z,102038.84
2023-04-18T10:17:10.125Z,102041.31
2023-04-18T10:19:38.207Z,102037.34
2023-04-18T10:22:04.796Z,102031.56
2023-04-18T10:24:53.309Z,102029.59
2023-04-18T10:27:49.006Z,102033.38
2023-04-18T10:30:16.602Z,102040.88
2023-04-18T10:32:43.258Z,102031.84
2023-04-18T10:35:10.728Z,102028.69
2023-04-18T10:37:59.083Z,102032.66
2023-04-18T10:40:32.961Z,102038.56
2023-04-18T10:42:59.699Z,102036.41
2023-04-18T10:45:28.820Z,102033.25
2023-04-18T10:48:25.077Z,102028.81
2023-04-18T10:51:13.335Z,102024.19
2023-04-18T10:53:47.421Z,102020.06
2023-04-18T10:56:15.449Z,102026.28
2023-04-18T10:58:44.271Z,102022.47
2023-04-18T11:01:15.464Z,102012.69
2023-04-18T11:03:42.475Z,102027.34
2023-04-18T11:06:09.009Z,102018.75
2023-04-18T11:08:36.911Z,102027.25
2023-04-18T11:11:06.917Z,102012.59
2023-04-18T11:13:33.306Z,102017.53
2023-04-18T11:15:59.659Z,102026.03
2023-04-18T11:18:26.030Z,102021.75
2023-04-18T11:20:53.577Z,102014.16
2023-04-18T11:23:23.737Z,102008.56
2023-04-18T11:25:53.486Z,102009.88
2023-04-18T11:28:21.874Z,102007.53
2023-04-18T11:30:48.680Z,102004.06
2023-04-18T11:33:15.731Z,102001.38
2023-04-18T11:35:43.881Z,102015.06
2023-04-18T11:38:15.241Z,102013.91
2023-04-18T11:40:48.642Z,102009.56
2023-04-18T11:43:21.144Z,102022.09
2023-04-18T11:45:55.829Z,102000.47
2023-04-18T11:48:22.996Z,102013.94
2023-04-18T11:50:49.681Z,102012.44
2023-04-18T11:53:35.072Z,102012.31
2023-04-18T11:56:03.472Z,102014.91
2023-04-18T11:58:31.928Z,102012.09
2023-04-18T12:00:58.882Z,102018.53
2023-04-18T12:03:25.742Z,102012.59
2023-04-18T12:06:00.650Z,102026.59
2023-04-18T12:08:27.099Z,102025.59
2023-04-18T12:10:56.885Z,102021.97
2023-04-18T12:13:31.323Z,102013.53
2023-04-18T12:15:58.439Z,102018.81
2023-04-18T12:18:24.915Z,102025.22
2023-04-18T12:20:54.073Z,102014.81
2023-04-18T12:23:37.206Z,102016.00
2023-04-18T12:26:04.784Z,102014.16
2023-04-18T12:28:32.366Z,102012.31
2023-04-18T12:30:59.628Z,102018.84
2023-04-18T12:33:27.051Z,102017.03
2023-04-18T12:35:53.539Z,102014.34
2023-04-18T12:38:22.219Z,102015.31
2023-04-18T12:40:49.632Z,102004.53
2023-04-18T12:43:16.783Z,102001.19
2023-04-18T12:45:43.561Z,101996.50
2023-04-18T12:48:10.518Z,101990.81
2023-04-18T12:50:37.187Z,101987.44
2023-04-18T12:53:04.025Z,101993.66
2023-04-18T12:55:30.787Z,101982.19
2023-04-18T12:57:58.160Z,101982.41
2023-04-18T13:00:30.387Z,101979.88
2023-04-18T13:02:57.602Z,101974.81
2023-04-18T13:05:28.074Z,101969.44
2023-04-18T13:08:08.708Z,101980.56
2023-04-18T13:10:39.571Z,101986.06
2023-04-18T13:13:06.097Z,101980.69
2023-04-18T13:15:32.523Z,101971.69
2023-04-18T13:18:05.037Z,101975.44
2023-04-18T13:20:32.520Z,101975.50
2023-04-18T13:22:58.997Z,101971.19
2023-04-18T13:25:26.732Z,101973.63
2023-04-18T13:27:54.414Z,101974.13
2023-04-18T13:30:21.046Z,101978.19
2023-04-18T13:32:49.048Z,101973.06
2023-04-18T13:35:15.512Z,101981.13
2023-04-18T13:37:42.242Z,101971.88
2023-04-18T13:40:09.602Z,101963.91
2023-04-18T13:42:37.571Z,101966.38
2023-04-18T13:45:04.510Z,101968.81
2023-04-18T13:47:31.424Z,101966.13
2023-04-18T13:49:58.122Z,101951.34
2023-04-18T13:52:25.597Z,101964.34
2023-04-18T13:54:52.035Z,101959.63
2023-04-18T13:57:20.294Z,101956.94
2023-04-18T13:59:46.943Z,101967.56
2023-04-18T14:02:13.583Z,101959.25
2023-04-18T14:04:40.417Z,101953.72
2023-04-18T14:07:08.148Z,101967.06
2023-04-18T14:09:34.859Z,101959.53
2023-04-18T14:12:02.254Z,101959.66
2023-04-18T14:14:28.692Z,101962.09
2023-04-18T14:16:55.402Z,101950.84
2023-04-18T14:19:22.049Z,101953.66
2023-04-18T14:21:49.566Z,101958.91
2023-04-18T14:24:16.111Z,101958.09
2023-04-18T14:26:42.732Z,101946.84
2023-04-18T14:29:09.076Z,101948.16
2023-04-18T14:31:37.732Z,101944.16
2023-04-18T14:34:04.435Z,101947.06
2023-04-18T14:36:32.076Z,101950.81
2023-04-18T14:38:59.106Z,101952.09
2023-04-18T14:41:25.539Z,101955.38
2023-04-18T14:43:51.899Z,101960.63
2023-04-18T14:46:18.561Z,101948.09
2023-04-18T14:48:46.615Z,101955.38
2023-04-18T14:51:15.172Z,101952.09
2023-04-18T14:53:41.722Z,101946.47
2023-04-18T14:56:08.309Z,101951.75
2023-04-18T14:58:34.625Z,101952.47
2023-04-18T15:01:01.479Z,101943.06
2023-04-18T15:03:28.240Z,101941.44
2023-04-18T15:05:57.569Z,101941.81
2023-04-18T15:08:23.997Z,101932.53
2023-04-18T15:10:50.499Z,101930.09
2023-04-18T15:13:17.202Z,101947.78
2023-04-18T15:15:51.396Z,101930.91
2023-04-18T15:18:17.774Z,101939.06
2023-04-18T15:20:44.518Z,101937.91
2023-04-18T15:23:13.564Z,101933.94
2023-04-18T15:25:41.235Z,101934.03
2023-04-18T15:28:07.608Z,101934.50
2023-04-18T15:30:33.942Z,101934.13
2023-04-18T15:33:02.105Z,101930.97
2023-04-18T15:35:28.448Z,101921.34
2023-04-18T15:37:54.786Z,101923.69
2023-04-18T15:40:21.384Z,101934.13
2023-04-18T15:42:49.702Z,101934.50
2023-04-18T15:45:16.169Z,101929.69
2023-04-18T15:47:42.583Z,101931.69
2023-04-18T15:50:09.600Z,101940.56
2023-04-18T15:52:36.610Z,101931.78
2023-04-18T15:55:03.960Z,101936.59
2023-04-18T15:57:31.133Z,101933.44
2023-04-18T15:59:58.428Z,101936.25
2023-04-18T16:02:25.916Z,101937.44
2023-04-18T16:04:52.381Z,101932.94
2023-04-18T16:07:19.230Z,101920.44
2023-04-18T16:09:46.212Z,101919.97
2023-04-18T16:12:12.585Z,101916.22
2023-04-18T16:14:38.892Z,101921.03
2023-04-18T16:17:05.281Z,101929.00
2023-04-18T16:19:33.922Z,101921.75
2023-04-18T16:22:02.109Z,101922.47
2023-04-18T16:24:30.370Z,101924.00
2023-04-18T16:26:56.924Z,101932.44
2023-04-18T16:29:23.956Z,101925.53
2023-04-18T16:31:51.599Z,101928.72
2023-04-18T16:34:18.360Z,101928.34
2023-04-18T16:36:44.687Z,101925.91
2023-04-18T16:39:11.437Z,101925.91
2023-04-18T16:41:37.876Z,101924.28
2023-04-18T16:44:04.828Z,101928.59
2023-04-18T16:46:32.512Z,101935.03
2023-04-18T16:48:59.638Z,101940.22
2023-04-18T16:51:26.837Z,101929.31
2023-04-18T16:53:53.315Z,101937.66
2023-04-18T16:56:19.948Z,101937.19
2023-04-18T16:58:46.754Z,101939.94
2023-04-18T17:01:13.210Z,101943.06
2023-04-18T17:03:39.823Z,101932.19
2023-04-18T17:06:06.819Z,101931.75
2023-04-18T17:08:33.944Z,101937.25
2023-04-18T17:11:02.320Z,101947.22
2023-04-18T17:13:31.679Z,101945.47
2023-04-18T17:15:58.487Z,101938.59
2023-04-18T17:18:25.141Z,101942.91
2023-04-18T17:20:53.897Z,101944.78
2023-04-18T17:23:21.827Z,101953.94
2023-04-18T17:25:49.060Z,101947.84
2023-04-18T17:28:15.550Z,101947.75
2023-04-18T17:30:43.352Z,101949.66
2023-04-18T17:33:10.944Z,101959.59
2023-04-18T17:35:39.751Z,101956.78
2023-04-18T17:38:06.648Z,101951.41
2023-04-18T17:40:33.209Z,101959.38
2023-04-18T17:42:59.583Z,101960.44
2023-04-18T17:45:25.958Z,101958.00
2023-04-18T17:47:52.383Z,101959.06
2023-04-18T17:50:18.993Z,101956.09
2023-04-18T17:52:46.537Z,101956.78
2023-04-18T17:55:13.190Z,101970.72
2023-04-18T17:57:39.595Z,101967.81
2023-04-18T18:00:10.646Z,101972.13
2023-04-18T18:02:37.916Z,101968.38
2023-04-18T18:05:05.421Z,101975.91
2023-04-18T18:07:34.709Z,101974.59
2023-04-18T18:10:01.784Z,101972.47
2023-04-18T18:12:28.346Z,101977.19
2023-04-18T18:14:57.161Z,101979.88
2023-04-18T18:17:23.899Z,101979.72
2023-04-18T18:19:50.589Z,101990.84
2023-04-18T18:22:17.648Z,101987.94
2023-04-18T18:24:44.014Z,101992.59
2023-04-18T18:27:10.827Z,101982.41
2023-04-18T18:29:37.218Z,101994.31
2023-04-18T18:32:03.545Z,101988.13
2023-04-18T18:34:31.962Z,101988.34
2023-04-18T18:36:58.634Z,101989.03
2023-04-18T18:39:25.010Z,101995.34
2023-04-18T18:41:52.175Z,101994.41
2023-04-18T18:44:21.004Z,101997.09
2023-04-18T18:46:47.434Z,101995.81
2023-04-18T18:49:14.133Z,101999.28
2023-04-18T18:51:46.629Z,102004.75
2023-04-18T18:54:13.603Z,101996.22
2023-04-18T18:56:42.958Z,102003.66
2023-04-18T18:59:09.696Z,102008.78
2023-04-18T19:01:36.125Z,102007.84
2023-04-18T19:04:03.635Z,102011.66
2023-04-18T19:06:30.981Z,102004.78
2023-04-18T19:08:57.769Z,102019.47
2023-04-18T19:11:24.316Z,102019.34
2023-04-18T19:13:51.939Z,102019.22
2023-04-18T19:16:19.486Z,102024.34
2023-04-18T19:18:49.436Z,102023.06
2023-04-18T19:21:17.045Z,102026.88
2023-04-18T19:23:44.545Z,102024.75
2023-04-18T19:26:10.951Z,102034.69
2023-04-18T19:28:37.651Z,102028.94
2023-04-18T19:31:06.531Z,102031.59
2023-04-18T19:33:32.935Z,102026.69
2023-04-18T19:35:59.324Z,102030.97
2023-04-18T19:38:26.069Z,102030.50
2023-04-18T19:40:52.457Z,102023.13
2023-04-18T19:43:18.850Z,102033.03
2023-04-18T19:45:46.502Z,102028.94
2023-04-18T19:48:12.931Z,102028.78
2023-04-18T19:50:40.449Z,102031.09
2023-04-18T19:53:06.866Z,102027.00
2023-04-18T19:55:33.214Z,102027.34
2023-04-18T19:57:59.917Z,102028.84
2023-04-18T20:00:29.671Z,102030.34
2023-04-18T20:02:58.611Z,102025.41
2023-04-18T20:05:25.953Z,102030.19
2023-04-18T20:07:52.372Z,102036.13
2023-04-18T20:10:22.388Z,102033.19
2023-04-18T20:12:50.058Z,102037.16
2023-04-18T20:15:16.825Z,102032.69
2023-04-18T20:17:44.708Z,102037.47
2023-04-18T20:20:11.775Z,102026.97
2023-04-18T20:22:40.232Z,102039.31
2023-04-18T20:25:07.924Z,102028.81
2023-04-18T20:27:34.537Z,102019.09
2023-04-18T20:30:01.122Z,102036.19
2023-04-18T20:32:29.208Z,102030.09
2023-04-18T20:34:55.629Z,102026.81
2023-04-18T20:37:22.259Z,102026.81
2023-04-18T20:39:48.652Z,102034.75
2023-04-18T20:42:15.724Z,102025.53
2023-04-18T20:44:46.765Z,102038.38
2023-04-18T20:47:15.516Z,102040.00
2023-04-18T20:49:42.332Z,102036.03
2023-04-18T20:52:11.646Z,102038.03
2023-04-18T20:54:38.305Z,102034.56
2023-04-18T20:57:05.116Z,102045.75
2023-04-18T20:59:31.747Z,102041.47
2023-04-18T21:01:58.261Z,102044.28
2023-04-18T21:04:25.103Z,102043.13
2023-04-18T21:06:51.719Z,102042.81
2023-04-18T21:09:19.120Z,102050.03
2023-04-18T21:11:45.492Z,102044.91
2023-04-18T21:14:12.297Z,102049.38
2023-04-18T21:16:39.640Z,102045.88
2023-04-18T21:19:07.066Z,102050.81
2023-04-18T21:21:34.423Z,102048.16
2023-04-18T21:24:01.758Z,102053.06
2023-04-18T21:26:28.263Z,102052.41
2023-04-18T21:29:04.423Z,102050.44
2023-04-18T21:31:33.289Z,102048.25
2023-04-18T21:34:01.275Z,102045.59
2023-04-18T21:36:29.399Z,102050.53
2023-04-18T21:38:57.857Z,102047.84
2023-04-18T21:41:25.630Z,102050.78
2023-04-18T21:43:55.336Z,102047.66
2023-04-18T21:46:22.042Z,102048.97
2023-04-18T21:48:48.710Z,102046.97
2023-04-18T21:51:16.943Z,102042.19
2023-04-18T21:53:44.022Z,102050.25
2023-04-18T21:56:11.173Z,102048.75
2023-04-18T21:58:37.926Z,102047.59
2023-04-18T22:01:04.613Z,102050.91
2023-04-18T22:03:33.280Z,102048.91
2023-04-18T22:06:00.498Z,102044.94
2023-04-18T22:08:26.943Z,102041.78
2023-04-18T22:10:57.507Z,102041.44
2023-04-18T22:13:25.787Z,102039.47
2023-04-18T22:15:52.556Z,102040.28
2023-04-18T22:18:19.163Z,102031.53
2023-04-18T22:20:46.850Z,102034.81
2023-04-18T22:23:13.973Z,102039.28
2023-04-18T22:25:40.828Z,102038.09
2023-04-18T22:28:07.364Z,102040.19
2023-04-18T22:30:33.820Z,102031.78
2023-04-18T22:33:00.295Z,102045.50
2023-04-18T22:35:27.039Z,102039.53
2023-04-18T22:37:53.882Z,102037.53
2023-04-18T22:40:20.354Z,102037.22
2023-04-18T22:42:46.830Z,102035.22
2023-04-18T22:45:13.663Z,102034.88
2023-04-18T22:47:40.604Z,102036.50
2023-04-18T22:50:07.918Z,102039.81
2023-04-18T22:52:34.515Z,102038.66
2023-04-18T22:55:03.971Z,102042.63
2023-04-18T22:57:30.506Z,102043.09
2023-04-18T22:59:57.209Z,102041.91
2023-04-18T23:02:24.770Z,102035.13
2023-04-18T23:04:51.510Z,102037.25
2023-04-18T23:07:19.386Z,102040.06
2023-04-18T23:09:46.038Z,102042.19
2023-04-18T23:12:12.334Z,102036.22
2023-04-18T23:14:41.014Z,102043.47
2023-04-18T23:17:07.798Z,102033.06
2023-04-18T23:19:34.360Z,102039.19
2023-04-18T23:22:00.918Z,102042.44
2023-04-18T23:24:30.925Z,102040.47
2023-04-18T23:26:57.671Z,102039.28
2023-04-18T23:29:24.242Z,102041.78
2023-04-18T23:31:51.411Z,102035.81
2023-04-18T23:34:17.887Z,102030.19
2023-04-18T23:36:44.270Z,102031.53
2023-04-18T23:39:11.074Z,102029.56
2023-04-18T23:41:37.581Z,102034.00
2023-04-18T23:44:04.134Z,102036.78
2023-04-18T23:46:31.204Z,102036.78
2023-04-18T23:48:57.835Z,102038.44
2023-04-18T23:51:24.372Z,102029.19
2023-04-18T23:53:51.062Z,102037.25
2023-04-18T23:56:17.438Z,102028.84
2023-04-18T23:58:43.816Z,102032.47
